• Join FlightAware (Why Join?)
  • Login
  • US Flag 
07:07AM EST


 

Airport Tracker/Info


-or-


 

Live Flight TrackerFlight Track Log ✈ G-VIIS ✈ 29-Apr-2013 ✈ VABB / BOM - EGLL / LHR

Flight Track Log - Related Links

Times and Time Zones

All times are in EDT time to prevent confusion due to time zone crossing. See the G-VIIS flight status page for this flight to view local times or setup timezone preferences in your user account.

Time Position Orientation Groundspeed Altitude Reporting Facility
EDT Latitude Longitude Course Direction KTS MPH feet Rate Location/Type
05:10PM 19.1785 72.7846 319° Northwest  Level Estimated
05:11PM 19.2683 72.7011 319° Northwest  Level Estimated
05:12PM 19.3581 72.6176 319° Northwest  Level Estimated
05:13PM 19.4478 72.5339 319° Northwest  Level Estimated
05:14PM 19.5375 72.4502 319° Northwest  Level Estimated
05:15PM 19.6271 72.3664 319° Northwest  Level Estimated
05:16PM 19.7167 72.2825 319° Northwest  Level Estimated
05:17PM 19.8063 72.1985 319° Northwest  Level Estimated
05:18PM 19.8958 72.1144 319° Northwest  Level Estimated
05:19PM 19.9853 72.0302 319° Northwest  Level Estimated
05:20PM 20.0748 71.9459 318° Northwest  Level Estimated
05:21PM 20.1642 71.8615 318° Northwest  Level Estimated
05:22PM 20.2535 71.7770 318° Northwest  Level Estimated
05:23PM 20.3429 71.6924 318° Northwest  Level Estimated
05:24PM 20.4322 71.6077 318° Northwest  Level Estimated
05:25PM 20.5214 71.5230 318° Northwest  Level Estimated
05:26PM 20.6106 71.4381 318° Northwest  Level Estimated
05:27PM 20.6998 71.3531 318° Northwest  Level Estimated
05:28PM 20.7889 71.2680 318° Northwest  Level Estimated
05:29PM 20.8780 71.1828 318° Northwest  Level Estimated
05:30PM 20.9670 71.0976 318° Northwest  Level Estimated
05:31PM 21.0560 71.0122 318° Northwest  Level Estimated
05:32PM 21.1450 70.9267 318° Northwest  Level Estimated
05:33PM 21.2339 70.8411 318° Northwest  Level Estimated
05:34PM 21.3227 70.7554 318° Northwest  Level Estimated
05:35PM 21.4116 70.6696 318° Northwest  Level Estimated
05:36PM 21.5003 70.5837 318° Northwest  Level Estimated
05:37PM 21.5891 70.4977 318° Northwest  Level Estimated
05:38PM 21.6778 70.4116 318° Northwest  Level Estimated
05:39PM 21.7664 70.3254 318° Northwest  Level Estimated
05:40PM 21.8550 70.2391 318° Northwest  Level Estimated
05:41PM 21.9436 70.1527 318° Northwest  Level Estimated
05:42PM 22.0321 70.0661 318° Northwest  Level Estimated
05:43PM 22.1206 69.9795 318° Northwest  Level Estimated
05:44PM 22.2090 69.8927 318° Northwest  Level Estimated
05:45PM 22.2973 69.8059 318° Northwest  Level Estimated
05:46PM 22.3857 69.7189 318° Northwest  Level Estimated
05:47PM 22.4739 69.6318 318° Northwest  Level Estimated
05:48PM 22.5622 69.5446 318° Northwest  Level Estimated
05:49PM 22.6504 69.4573 318° Northwest  Level Estimated
05:50PM 22.7385 69.3699 318° Northwest  Level Estimated
05:51PM 22.8266 69.2824 318° Northwest  Level Estimated
05:52PM 22.9146 69.1947 317° Northwest  Level Estimated
05:53PM 23.0026 69.1070 317° Northwest  Level Estimated
05:54PM 23.0906 69.0191 317° Northwest  Level Estimated
05:55PM 23.1785 68.9311 317° Northwest  Level Estimated
05:56PM 23.2663 68.8430 317° Northwest  Level Estimated
05:57PM 23.3522 68.7567 317° Northwest  Level Estimated
05:58PM 23.4381 68.6703 317° Northwest  Level Estimated
05:59PM 23.5239 68.5838 317° Northwest  Level Estimated
06:00PM 23.6097 68.4971 317° Northwest  Level Estimated
06:01PM 23.6954 68.4103 317° Northwest  Level Estimated
06:02PM 23.7810 68.3235 317° Northwest  Level Estimated
06:02PM 21.9230 67.4670 317° Northwest 487 560 28,000  Level FlightAware
06:03PM 23.8666 68.2365 317° Northwest  Level Estimated
06:03PM 21.9840 67.4250 327° Northwest 487 560 28,000  Level FlightAware
06:04PM 22.1080 67.3380 327° Northwest 486 559 28,000  Level FlightAware
06:04PM 22.1710 67.2910 325° Northwest 486 559 28,000  Level FlightAware
06:05PM 22.2340 67.2450 326° Northwest 486 559 28,000  Level FlightAware
06:06PM 22.3500 67.1700 329° Northwest 482 555 28,000  Level FlightAware
06:06PM 22.4090 67.1290 327° Northwest 482 555 28,000  Level FlightAware
06:07PM 22.5120 67.0570 327° Northwest 481 554 28,000  Level FlightAware
06:08PM 22.5870 67.0040 327° Northwest 482 555 28,000  Level FlightAware
06:08PM 22.6620 66.9520 327° Northwest 483 556 28,000  Level FlightAware
06:09PM 22.7330 66.9020 327° Northwest 483 556 28,000  Level FlightAware
06:10PM 22.8080 66.8470 326° Northwest 483 556 28,000  Level FlightAware
06:11PM 22.9060 66.7800 328° Northwest 481 554 28,000  Level FlightAware
06:11PM 22.9810 66.7270 327° Northwest 482 555 28,000  Level FlightAware
06:12PM 23.0640 66.6680 327° Northwest 485 558 28,000  Level FlightAware
06:13PM 23.1400 66.6150 327° Northwest 486 559 28,000  Level FlightAware
06:13PM 23.2260 66.5530 326° Northwest 486 559 28,000  Level FlightAware
06:14PM 23.3020 66.5000 327° Northwest 487 560 28,000  Level FlightAware
06:15PM 23.3740 66.4480 326° Northwest 488 562 28,000  Level FlightAware
06:16PM 23.4630 66.3850 327° Northwest 488 562 28,000  Level FlightAware
06:16PM 23.5370 66.3320 327° Northwest 487 560 28,000 360 Level FlightAware
06:17PM 23.6140 66.2770 327° Northwest 488 562 28,500 840 Climbing FlightAware
06:18PM 23.6970 66.2180 327° Northwest 491 565 29,200 900 Climbing FlightAware
06:18PM 23.7740 66.1630 327° Northwest 494 568 29,800 960 Climbing FlightAware
06:19PM 23.8610 66.1000 326° Northwest 496 571 30,600 960 Climbing FlightAware
06:20PM 23.9270 66.0530 327° Northwest 498 573 31,100 840 Climbing FlightAware
06:20PM 24.0050 65.9970 327° Northwest 499 574 31,700 1,080 Climbing FlightAware
06:21PM 24.0790 65.9410 325° Northwest 489 563 32,600 1,260 Climbing FlightAware
06:22PM 24.1630 65.8740 324° Northwest 485 558 33,500 960 Climbing FlightAware
06:22PM 24.2360 65.8170 325° Northwest 485 558 34,000 360 Climbing FlightAware
06:23PM 24.3090 65.7580 324° Northwest 484 557 34,000  Level FlightAware
06:24PM 24.3860 65.6900 321° Northwest 491 565 34,000  Level FlightAware
06:24PM 24.4580 65.6280 322° Northwest 494 568 34,000  Level FlightAware
06:25PM 24.5400 65.5570 322° Northwest 487 560 34,000  Level FlightAware
06:26PM 24.6120 65.4960 322° Northwest 487 560 34,000  Level FlightAware
06:27PM 24.6910 65.4290 322° Northwest 487 560 34,000  Level FlightAware
06:27PM 24.7610 65.3680 322° Northwest 484 557 34,000  Level FlightAware
06:28PM 24.8240 65.3140 322° Northwest 483 556 34,000  Level FlightAware
06:29PM 24.9120 65.2370 322° Northwest 480 552 34,000  Level FlightAware
06:29PM 24.9720 65.1850 322° Northwest 479 551 34,000  Level FlightAware
06:30PM 25.0510 65.1160 322° Northwest 478 550 34,000  Level FlightAware
06:31PM 25.1290 65.0490 322° Northwest 478 550 34,000  Level FlightAware
06:31PM 25.1920 64.9930 321° Northwest 478 550 34,000  Level FlightAware
06:32PM 25.2500 64.9410 321° Northwest 478 550 34,000  Level FlightAware
06:33PM 25.3370 64.8680 323° Northwest 483 556 34,000  Level FlightAware
06:34PM 25.4180 64.7970 322° Northwest 483 556 34,000  Level FlightAware
06:34PM 25.4960 64.7290 322° Northwest 484 557 34,000  Level FlightAware
06:35PM 25.5650 64.6670 321° Northwest 486 559 34,000  Level FlightAware
06:36PM 25.6450 64.5970 322° Northwest 486 559 34,000  Level FlightAware
06:36PM 25.7170 64.5340 322° Northwest 486 559 34,000  Level FlightAware
06:37PM 25.7940 64.4660 322° Northwest 487 560 34,000  Level FlightAware
06:38PM 25.8570 64.4090 321° Northwest 487 560 34,000  Level FlightAware
06:38PM 25.9370 64.3400 322° Northwest 488 562 34,000  Level FlightAware
06:39PM 26.0090 64.2750 321° Northwest 488 562 34,000  Level FlightAware
06:40PM 26.0690 64.2210 321° Northwest 488 562 34,000  Level FlightAware
06:41PM 26.1290 64.1670 321° Northwest 488 562 34,000  Level FlightAware
06:41PM 26.1880 64.1130 321° Northwest 488 562 34,000  Level FlightAware
06:42PM 26.2480 64.0590 321° Northwest 488 562 34,000  Level FlightAware
06:43PM 26.3080 64.0060 322° Northwest 488 562 34,000  Level FlightAware
06:43PM 26.3820 63.9380 321° Northwest 488 562 34,000  Level FlightAware
06:44PM 26.4420 63.8840 321° Northwest 488 562 34,000  Level FlightAware
06:45PM 26.4870 63.8440 321° Northwest 488 562 34,000  Level FlightAware
06:45PM 26.5460 63.7900 321° Northwest 488 562 34,000  Level FlightAware
06:46PM 26.6060 63.7360 321° Northwest 488 562 34,000  Level FlightAware
06:47PM 26.6660 63.6820 321° Northwest 488 562 34,000  Level FlightAware
06:47PM 26.7400 63.6140 321° Northwest 488 562 34,000  Level FlightAware
06:48PM 26.8000 63.5600 321° Northwest 488 562 34,000  Level FlightAware
06:51PM 27.0064 63.3343 316° Northwest  Level Estimated
06:52PM 27.0900 63.2426 316° Northwest  Level Estimated
06:53PM 27.1736 63.1507 316° Northwest  Level Estimated
06:54PM 27.2570 63.0587 316° Northwest  Level Estimated
06:55PM 27.3404 62.9665 316° Northwest  Level Estimated
06:56PM 27.4238 62.8743 316° Northwest  Level Estimated
06:57PM 27.5071 62.7818 315° West  Level Estimated
06:58PM 27.5903 62.6893 315° West  Level Estimated
06:59PM 27.6735 62.5966 315° West  Level Estimated
07:00PM 27.7566 62.5037 315° West  Level Estimated
07:01PM 27.8396 62.4108 315° West  Level Estimated
07:02PM 27.9226 62.3176 315° West  Level Estimated
07:03PM 28.0055 62.2243 315° West  Level Estimated
07:04PM 28.0884 62.1309 315° West  Level Estimated
07:05PM 28.1712 62.0374 315° West  Level Estimated
07:06PM 28.2539 61.9437 315° West  Level Estimated
07:07PM 28.3366 61.8498 315° West  Level Estimated
07:08PM 28.4192 61.7558 315° West  Level Estimated
07:09PM 28.5017 61.6617 315° West  Level Estimated
07:10PM 28.5842 61.5674 315° West  Level Estimated
07:11PM 28.6666 61.4729 315° West  Level Estimated
07:12PM 28.7489 61.3783 315° West  Level Estimated
07:13PM 28.8312 61.2836 315° West  Level Estimated
07:14PM 28.9134 61.1887 315° West  Level Estimated
07:15PM 28.9955 61.0937 315° West  Level Estimated
07:16PM 29.0776 60.9985 315° West  Level Estimated
07:17PM 29.1596 60.9031 315° West  Level Estimated
07:18PM 29.2416 60.8077 315° West  Level Estimated
07:19PM 29.3234 60.7120 314° West  Level Estimated
07:20PM 29.4052 60.6162 314° West  Level Estimated
07:21PM 29.4870 60.5203 314° West  Level Estimated
07:22PM 29.5686 60.4241 314° West  Level Estimated
07:23PM 29.6502 60.3279 314° West  Level Estimated
07:24PM 29.7318 60.2315 314° West  Level Estimated
07:25PM 29.8132 60.1349 314° West  Level Estimated
07:26PM 29.8946 60.0382 314° West  Level Estimated
07:27PM 29.9759 59.9413 314° West  Level Estimated
07:28PM 30.0571 59.8442 314° West  Level Estimated
07:29PM 30.1383 59.7470 314° West  Level Estimated
07:30PM 30.2194 59.6496 314° West  Level Estimated
07:31PM 30.3004 59.5521 314° West  Level Estimated
07:32PM 30.3814 59.4544 314° West  Level Estimated
07:33PM 30.4623 59.3566 314° West  Level Estimated
07:34PM 30.5431 59.2585 314° West  Level Estimated
07:35PM 30.6238 59.1604 314° West  Level Estimated
07:36PM 30.7045 59.0620 314° West  Level Estimated
07:37PM 30.7851 58.9635 314° West  Level Estimated
07:38PM 30.8656 58.8648 314° West  Level Estimated
07:39PM 30.9460 58.7660 314° West  Level Estimated
07:40PM 31.0264 58.6670 313° West  Level Estimated
07:41PM 31.1067 58.5678 313° West  Level Estimated
07:42PM 31.1869 58.4685 313° West  Level Estimated
07:43PM 31.2670 58.3690 313° West  Level Estimated
07:44PM 31.3471 58.2693 313° West  Level Estimated
07:45PM 31.4271 58.1695 313° West  Level Estimated
07:46PM 31.5070 58.0694 313° West  Level Estimated
07:47PM 31.5868 57.9692 313° West  Level Estimated
07:48PM 31.6666 57.8689 313° West  Level Estimated
07:49PM 31.7462 57.7684 313° West  Level Estimated
07:50PM 31.8258 57.6676 313° West  Level Estimated
07:51PM 31.9053 57.5668 313° West  Level Estimated
07:52PM 31.9848 57.4657 313° West  Level Estimated
07:53PM 32.0641 57.3645 313° West  Level Estimated
07:54PM 32.1434 57.2631 313° West  Level Estimated
07:55PM 32.2226 57.1615 313° West  Level Estimated
07:56PM 32.3017 57.0597 313° West  Level Estimated
07:57PM 32.3807 56.9578 313° West  Level Estimated
07:58PM 32.4596 56.8557 313° West  Level Estimated
07:59PM 32.5385 56.7534 312° West  Level Estimated
08:00PM 32.6173 56.6509 312° West  Level Estimated
08:01PM 32.6960 56.5483 312° West  Level Estimated
08:02PM 32.7746 56.4455 312° West  Level Estimated
08:03PM 32.8531 56.3424 312° West  Level Estimated
08:04PM 32.9316 56.2392 312° West  Level Estimated
08:05PM 33.0099 56.1359 312° West  Level Estimated
08:06PM 33.0882 56.0323 312° West  Level Estimated
08:07PM 33.1664 55.9285 312° West  Level Estimated
08:08PM 33.2445 55.8246 312° West  Level Estimated
08:09PM 33.3225 55.7205 312° West  Level Estimated
08:10PM 33.4004 55.6162 312° West  Level Estimated
08:11PM 33.4783 55.5117 312° West  Level Estimated
08:12PM 33.5560 55.4070 312° West  Level Estimated
08:13PM 33.6337 55.3021 312° West  Level Estimated
08:14PM 33.7112 55.1971 312° West  Level Estimated
08:15PM 33.7887 55.0918 312° West  Level Estimated
08:16PM 33.8661 54.9864 311° West  Level Estimated
08:17PM 33.9434 54.8808 311° West  Level Estimated
08:18PM 34.0207 54.7749 311° West  Level Estimated
08:19PM 34.0978 54.6689 311° West  Level Estimated
08:20PM 34.1748 54.5627 311° West  Level Estimated
08:21PM 34.2518 54.4563 311° West  Level Estimated
08:22PM 34.3286 54.3497 311° West  Level Estimated
08:23PM 34.4054 54.2429 311° West  Level Estimated
08:24PM 34.4820 54.1359 311° West  Level Estimated
08:25PM 34.5586 54.0287 311° West  Level Estimated
08:26PM 34.6351 53.9214 311° West  Level Estimated
08:27PM 34.7114 53.8138 311° West  Level Estimated
08:28PM 34.7877 53.7060 311° West  Level Estimated
08:29PM 34.8639 53.5980 311° West  Level Estimated
08:30PM 34.9400 53.4898 311° West  Level Estimated
08:31PM 35.0160 53.3815 311° West  Level Estimated
08:32PM 35.0919 53.2729 311° West  Level Estimated
08:33PM 35.1677 53.1641 310° West  Level Estimated
08:34PM 35.2435 53.0551 310° West  Level Estimated
08:35PM 35.3191 52.9459 310° West  Level Estimated
08:36PM 35.3946 52.8365 310° West  Level Estimated
08:37PM 35.4700 52.7269 310° West  Level Estimated
08:38PM 35.5453 52.6171 310° West  Level Estimated
08:39PM 35.6205 52.5071 310° West  Level Estimated
08:40PM 35.6956 52.3969 310° West  Level Estimated
08:41PM 35.7707 52.2864 310° West  Level Estimated
08:42PM 35.8456 52.1758 310° West  Level Estimated
08:43PM 35.9204 52.0650 310° West  Level Estimated
08:44PM 35.9951 51.9539 310° West  Level Estimated
08:45PM 36.0697 51.8427 310° West  Level Estimated
08:46PM 36.1442 51.7312 310° West  Level Estimated
08:47PM 36.2186 51.6195 310° West  Level Estimated
08:48PM 36.2929 51.5076 310° West  Level Estimated
08:49PM 36.3671 51.3955 309° West  Level Estimated
08:50PM 36.4412 51.2832 309° West  Level Estimated
08:51PM 36.5152 51.1706 309° West  Level Estimated
08:52PM 36.5890 51.0579 309° West  Level Estimated
08:53PM 36.6628 50.9449 309° West  Level Estimated
08:54PM 36.7365 50.8317 309° West  Level Estimated
08:55PM 36.8100 50.7183 309° West  Level Estimated
08:56PM 36.8835 50.6047 309° West  Level Estimated
08:57PM 36.9568 50.4908 309° West  Level Estimated
08:58PM 37.0300 50.3768 309° West  Level Estimated
08:59PM 37.1032 50.2625 309° West  Level Estimated
09:00PM 37.1762 50.1480 309° West  Level Estimated
09:01PM 37.2491 50.0333 309° West  Level Estimated
09:02PM 37.3219 49.9183 309° West  Level Estimated
09:03PM 37.3946 49.8032 308° West  Level Estimated
09:04PM 37.4671 49.6878 308° West  Level Estimated
09:05PM 37.5396 49.5721 308° West  Level Estimated
09:06PM 37.6119 49.4563 308° West  Level Estimated
09:07PM 37.6841 49.3402 308° West  Level Estimated
09:08PM 37.7562 49.2239 308° West  Level Estimated
09:09PM 37.8283 49.1074 308° West  Level Estimated
09:10PM 37.9001 48.9907 308° West  Level Estimated
09:10PM 37.3820 46.2290 308° West 504 580 36,000  Level FlightAware
09:11PM 37.9719 48.8737 308° West  Level Estimated
09:11PM 37.4090 46.1270 288° West 505 581 36,000  Level FlightAware
09:11PM 37.4460 45.9900 289° West 504 580 36,000  Level FlightAware
09:12PM 37.4800 45.8660 289° West 505 581 36,000  Level FlightAware
09:13PM 37.5100 45.7550 289° West 505 581 36,000  Level FlightAware
09:13PM 37.5400 45.6430 289° West 505 581 36,000  Level FlightAware
09:14PM 37.5730 45.5150 288° West 505 581 36,000  Level FlightAware
09:15PM 37.6020 45.4090 289° West 505 581 36,000  Level FlightAware
09:16PM 37.6310 45.2960 288° West 505 581 36,000  Level FlightAware
09:16PM 37.6650 45.1700 289° West 504 580 36,000  Level FlightAware
09:17PM 37.7000 45.0610 292° West 499 574 36,000  Level FlightAware
09:18PM 37.7520 44.9450 300° West 498 573 36,000  Level FlightAware
09:18PM 37.7980 44.8460 300° West 499 574 36,000  Level FlightAware
09:19PM 37.8500 44.7360 301° West 499 574 36,000  Level FlightAware
09:20PM 37.8970 44.6340 300° West 498 573 36,000  Level FlightAware
09:20PM 37.9430 44.5330 300° West 498 573 36,000  Level FlightAware
09:21PM 37.9940 44.4210 300° West 499 574 36,000  Level FlightAware
09:22PM 38.0400 44.3200 300° West 499 574 36,000  Level FlightAware
09:23PM 38.0910 44.2020 299° West 500 575 36,000  Level FlightAware
09:23PM 38.1340 44.0980 298° West 499 574 36,000  Level FlightAware
09:24PM 38.1760 43.9970 298° West 498 573 36,000  Level FlightAware
09:25PM 38.2260 43.8770 298° West 499 574 36,000  Level FlightAware
09:25PM 38.2630 43.7880 298° West 500 575 36,000  Level FlightAware
09:26PM 38.2960 43.7110 299° West 499 574 36,000  Level FlightAware
09:26PM 38.3410 43.6110 300° West 498 573 36,000  Level FlightAware
09:27PM 38.3870 43.5070 299° West 498 573 36,000  Level FlightAware
09:28PM 38.4360 43.3940 299° West 499 574 36,000  Level FlightAware
09:29PM 38.4810 43.2930 300° West 498 573 36,000  Level FlightAware
09:29PM 38.5230 43.1970 299° West 498 573 36,000  Level FlightAware
09:30PM 38.5790 43.0800 302° West 498 573 36,000  Level FlightAware
09:31PM 38.6190 42.9930 300° West 498 573 36,000  Level FlightAware
09:31PM 38.6580 42.9060 300° West 498 573 36,000  Level FlightAware
09:32PM 38.7070 42.7980 300° West 498 573 36,000  Level FlightAware
09:33PM 38.7460 42.7110 300° West 498 573 36,000  Level FlightAware
09:33PM 38.7850 42.6240 300° West 498 573 36,000  Level FlightAware
09:34PM 38.8240 42.5370 300° West 498 573 36,000  Level FlightAware
09:35PM 38.8630 42.4490 300° West 498 573 36,000  Level FlightAware
09:35PM 38.9030 42.3620 301° West 498 573 36,000  Level FlightAware
09:36PM 38.9320 42.2970 300° West 498 573 36,000  Level FlightAware
09:37PM 38.9810 42.1880 300° West 498 573 36,000  Level FlightAware
09:37PM 39.0200 42.1010 300° West 498 573 36,000  Level FlightAware
09:38PM 39.0590 42.0130 300° West 498 573 36,000  Level FlightAware
09:39PM 39.0980 41.9260 300° West 498 573 36,000  Level FlightAware
09:39PM 39.1380 41.8380 300° West 498 573 36,000  Level FlightAware
09:42PM 39.2820 41.5908 307° West  Level Estimated
09:43PM 39.3521 41.4699 307° West  Level Estimated
09:44PM 39.4220 41.3487 307° West  Level Estimated
09:45PM 39.4918 41.2273 307° West  Level Estimated
09:46PM 39.5615 41.1056 307° West  Level Estimated
09:47PM 39.6310 40.9837 307° West  Level Estimated
09:48PM 39.7004 40.8615 306° West  Level Estimated
09:49PM 39.7697 40.7391 306° West  Level Estimated
09:50PM 39.8389 40.6165 306° West  Level Estimated
09:51PM 39.9079 40.4936 306° West  Level Estimated
09:52PM 39.9768 40.3704 306° West  Level Estimated
09:53PM 40.0456 40.2470 306° West  Level Estimated
09:54PM 40.1142 40.1234 306° West  Level Estimated
09:55PM 40.1827 39.9995 306° West  Level Estimated
09:56PM 40.2511 39.8754 306° West  Level Estimated
09:57PM 40.3194 39.7509 306° West  Level Estimated
09:58PM 40.3875 39.6263 306° West  Level Estimated
09:59PM 40.4554 39.5014 306° West  Level Estimated
10:00PM 40.5233 39.3763 306° West  Level Estimated
10:01PM 40.5910 39.2508 305° West  Level Estimated
10:02PM 40.6586 39.1252 305° West  Level Estimated
10:03PM 40.7260 38.9993 305° West  Level Estimated
10:04PM 40.7933 38.8731 305° West  Level Estimated
10:05PM 40.8605 38.7467 305° West  Level Estimated
10:06PM 40.9275 38.6200 305° West  Level Estimated
10:07PM 40.9944 38.4931 305° West  Level Estimated
10:08PM 41.0611 38.3659 305° West  Level Estimated
10:09PM 41.1277 38.2384 305° West  Level Estimated
10:10PM 41.1942 38.1107 305° West  Level Estimated
10:11PM 41.2605 37.9827 305° West  Level Estimated
10:12PM 41.3267 37.8545 305° West  Level Estimated
10:13PM 41.3927 37.7260 304° West  Level Estimated
10:14PM 41.4586 37.5973 304° West  Level Estimated
10:15PM 41.5243 37.4683 304° West  Level Estimated
10:16PM 41.5900 37.3390 304° West  Level Estimated
10:17PM 41.6554 37.2094 304° West  Level Estimated
10:18PM 41.7207 37.0796 304° West  Level Estimated
10:19PM 41.7859 36.9496 304° West  Level Estimated
10:20PM 41.8509 36.8192 304° West  Level Estimated
10:21PM 41.9158 36.6886 304° West  Level Estimated
10:22PM 41.9805 36.5578 304° West  Level Estimated
10:23PM 42.0451 36.4266 304° West  Level Estimated
10:24PM 42.1095 36.2952 303° West  Level Estimated
10:24PM 41.7040 34.7240 303° West 460 529 37,800  Level FlightAware
10:25PM 42.1738 36.1636 303° West  Level Estimated
10:25PM 41.7340 34.6140 290° West 456 525 38,000  Level FlightAware
10:25PM 41.7650 34.4980 290° West 455 524 38,000  Level FlightAware
10:26PM 41.7910 34.4020 290° West 454 522 38,000  Level FlightAware
10:27PM 41.8200 34.2940 290° West 454 522 38,000  Level FlightAware
10:28PM 41.8650 34.1280 290° West 454 522 38,000  Level FlightAware
10:28PM 41.8930 34.0230 290° West 453 521 38,000  Level FlightAware
10:29PM 41.9220 33.9120 289° West 452 520 38,000  Level FlightAware
10:30PM 41.9520 33.7980 290° West 452 520 38,000  Level FlightAware
10:30PM 41.9810 33.6880 290° West 450 518 38,000  Level FlightAware
10:31PM 42.0080 33.5840 289° West 450 518 38,000  Level FlightAware
10:32PM 42.0360 33.4750 289° West 451 519 38,000  Level FlightAware
10:32PM 42.0640 33.3670 289° West 452 520 38,000  Level FlightAware
10:33PM 42.0980 33.2380 290° West 452 520 38,000  Level FlightAware
10:34PM 42.1230 33.1400 289° West 453 521 38,000  Level FlightAware
10:35PM 42.1490 33.0360 289° West 454 522 38,000  Level FlightAware
10:35PM 42.1820 32.9060 289° West 454 522 38,000  Level FlightAware
10:36PM 42.2100 32.7980 289° West 453 521 38,000  Level FlightAware
10:37PM 42.2380 32.6840 288° West 452 520 38,000  Level FlightAware
10:38PM 42.2710 32.5530 289° West 449 517 38,000  Level FlightAware
10:38PM 42.3020 32.4290 289° West 445 512 38,000  Level FlightAware
10:39PM 42.3290 32.3200 289° West 450 518 38,000  Level FlightAware
10:40PM 42.3550 32.2100 288° West 450 518 38,000  Level FlightAware
10:40PM 42.3850 32.0910 289° West 449 517 38,000  Level FlightAware
10:41PM 42.4150 31.9680 288° West 451 519 38,000  Level FlightAware
10:42PM 42.4410 31.8600 288° West 452 520 38,000  Level FlightAware
10:43PM 42.4700 31.7420 288° West 451 519 38,000  Level FlightAware
10:43PM 42.4960 31.6320 288° West 448 516 38,000  Level FlightAware
10:44PM 42.5190 31.5390 289° West 447 514 38,000  Level FlightAware
10:45PM 42.5460 31.4250 288° West 449 517 38,000  Level FlightAware
10:45PM 42.5780 31.2890 288° West 446 513 38,000  Level FlightAware
10:46PM 42.5960 31.2100 287° West 446 513 38,000  Level FlightAware
10:47PM 42.6190 31.1020 286° West 446 513 38,000  Level FlightAware
10:47PM 42.6580 30.9740 293° West 453 521 38,000  Level FlightAware
10:48PM 42.7120 30.8670 305° West 454 522 38,000  Level FlightAware
10:49PM 42.7550 30.7750 303° West 449 517 38,000  Level FlightAware
10:49PM 42.7940 30.6830 300° West 449 517 38,000  Level FlightAware
10:50PM 42.7120 30.8670 121° Southeast 38,000  Level FlightAware
10:50PM 42.8420 30.5840 302° West 450 518 38,000  Level FlightAware
10:51PM 42.8740 30.5090 300° West 450 518 38,000  Level FlightAware
10:51PM 42.9150 30.4340 307° West 455 524 38,000  Level FlightAware
10:52PM 42.9610 30.3370 303° West 455 524 38,000  Level FlightAware
10:53PM 43.0100 30.2350 303° West 455 524 38,000  Level FlightAware
10:53PM 42.9150 30.4340 123° Southeast 38,000  Level FlightAware
10:54PM 43.1100 30.0330 304° West 451 519 38,000  Level FlightAware
10:55PM 43.1570 29.9380 304° West 450 518 38,000  Level FlightAware
10:55PM 43.2060 29.8350 303° West 449 517 38,000  Level FlightAware
10:57PM 43.2490 29.7440 303° West 449 517 38,000  Level FlightAware
10:58PM 43.3600 29.5130 304° West 450 518 38,000  Level FlightAware
10:58PM 43.4070 29.4150 303° West 449 517 38,000  Level FlightAware
10:59PM 43.4530 29.3170 303° West 449 517 38,000  Level FlightAware
11:00PM 43.3250 29.5880 123° Southeast 446 513 38,000  Level FlightAware
11:01PM 43.5590 29.0900 303° West 446 513 38,000  Level FlightAware
11:01PM 43.5490 29.1110 123° Southeast 444 511 38,000  Level FlightAware
11:02PM 43.6710 28.8540 303° West 448 516 38,000  Level FlightAware
11:03PM 43.7150 28.7560 302° West 448 516 38,000  Level FlightAware
11:04PM 43.7520 28.6740 302° West 448 516 38,000  Level FlightAware
11:04PM 43.7890 28.5910 302° West 448 516 38,000  Level FlightAware
11:05PM 43.8270 28.5080 302° West 448 516 38,000  Level FlightAware
11:06PM 43.8730 28.4040 302° West 448 516 38,000  Level FlightAware
11:06PM 43.9110 28.3220 303° West 448 516 38,000  Level FlightAware
11:07PM 43.9480 28.2390 302° West 448 516 38,000  Level FlightAware
11:08PM 43.9850 28.1550 301° West 448 516 38,000  Level FlightAware
11:08PM 44.0230 28.0720 303° West 448 516 38,000  Level FlightAware
11:09PM 44.0690 27.9680 302° West 448 516 38,000  Level FlightAware
11:10PM 44.1870 27.7230 304° West 446 513 38,000  Level FlightAware
11:11PM 44.2240 27.6400 302° West 443 510 38,000  Level FlightAware
11:11PM 44.2740 27.5260 302° West 443 510 38,000  Level FlightAware
11:12PM 44.3100 27.4430 301° West 443 510 38,000  Level FlightAware
11:13PM 44.3460 27.3590 301° West 443 510 38,000  Level FlightAware
11:13PM 44.3820 27.2760 301° West 443 510 38,000  Level FlightAware
11:14PM 44.4180 27.1920 301° West 443 510 38,000  Level FlightAware
11:15PM 44.4630 27.0870 301° West 443 510 38,000  Level FlightAware
11:16PM 44.4980 27.0040 301° West 443 510 38,000  Level FlightAware
11:16PM 44.5340 26.9200 301° West 443 510 38,000  Level FlightAware
11:17PM 44.5700 26.8360 301° West 443 510 38,000  Level FlightAware
11:18PM 44.6060 26.7520 301° West 443 510 38,000  Level FlightAware
11:20PM 44.7225 26.4734 301° West  Level Estimated
11:21PM 44.7814 26.3312 300° West  Level Estimated
11:22PM 44.8402 26.1889 300° West  Level Estimated
11:23PM 44.8988 26.0462 300° West  Level Estimated
11:24PM 44.9573 25.9032 300° West  Level Estimated
11:25PM 45.0155 25.7599 300° West  Level Estimated
11:26PM 45.0736 25.6163 300° West  Level Estimated
11:27PM 45.1315 25.4725 300° West  Level Estimated
11:28PM 45.1892 25.3283 300° West  Level Estimated
11:29PM 45.2467 25.1839 300° West  Level Estimated
11:30PM 45.3041 25.0392 299° West  Level Estimated
11:31PM 45.3613 24.8941 299° West  Level Estimated
11:32PM 45.4183 24.7488 299° West  Level Estimated
11:32PM 45.5990 24.3820 299° West 434 499 38,000  Level FlightAware
11:33PM 45.6370 24.2850 299° West 436 502 38,000  Level FlightAware
11:34PM 45.6830 24.1690 300° West 437 503 38,000  Level FlightAware
11:34PM 45.7130 24.0920 299° West 437 503 38,000  Level FlightAware
11:35PM 45.7660 23.9570 299° West 437 503 38,000  Level FlightAware
11:36PM 45.8040 23.8600 299° West 437 503 38,000  Level FlightAware
11:36PM 45.8420 23.7640 300° West 437 503 38,000  Level FlightAware
11:37PM 45.8840 23.6550 299° West 437 503 38,000  Level FlightAware
11:38PM 45.9290 23.5380 299° West 437 503 38,000  Level FlightAware
11:39PM 45.9670 23.4380 299° West 437 503 38,000  Level FlightAware
11:39PM 46.0070 23.3340 299° West 437 503 38,000  Level FlightAware
11:40PM 46.0490 23.2260 299° West 437 503 38,000  Level FlightAware
11:41PM 46.0830 23.1360 299° West 437 503 38,000  Level FlightAware
11:41PM 46.1300 23.0110 299° West 430 495 38,000  Level FlightAware
11:42PM 46.1680 22.9100 299° West 429 494 38,000  Level FlightAware
11:43PM 46.2090 22.8020 299° West 428 493 38,000  Level FlightAware
11:43PM 46.2440 22.7090 299° West 425 489 38,000  Level FlightAware
11:44PM 46.2840 22.6020 298° West 423 487 38,000  Level FlightAware
11:45PM 46.3270 22.4870 298° West 421 484 38,000  Level FlightAware
11:46PM 46.3630 22.3880 298° West 421 484 38,000  Level FlightAware
11:46PM 46.4040 22.2770 298° West 421 484 38,000  Level FlightAware
11:47PM 46.4510 22.1500 298° West 417 480 38,000  Level FlightAware
11:49PM 46.5420 21.9020 298° West 417 480 38,000  Level FlightAware
11:50PM 46.5780 21.8020 298° West 416 479 38,000  Level FlightAware
11:50PM 46.6130 21.7040 297° West 415 478 38,000  Level FlightAware
11:51PM 46.6540 21.5900 298° West 415 478 38,000  Level FlightAware
11:52PM 46.6910 21.4950 300° West 412 474 38,000  Level FlightAware
11:52PM 46.7390 21.4020 307° West 416 479 38,000  Level FlightAware
11:53PM 46.7960 21.3050 311° West 420 483 38,000  Level FlightAware
11:54PM 46.8490 21.2190 312° West 428 493 38,000  Level FlightAware
11:55PM 46.9060 21.1270 312° West 429 494 38,000  Level FlightAware
11:55PM 46.9600 21.0390 312° West 423 487 38,000  Level FlightAware
11:56PM 47.0220 20.9380 312° West 423 487 38,000  Level FlightAware
11:57PM 47.0760 20.8490 312° West 424 488 38,000  Level FlightAware
11:57PM 47.1230 20.7710 312° West 424 488 38,000  Level FlightAware
11:58PM 47.2150 20.6170 311° West 426 490 38,000  Level FlightAware
11:59PM 47.2870 20.4970 312° West 428 493 38,000  Level FlightAware
12:01AM 47.4130 20.2850 311° West 436 502 38,000  Level FlightAware
12:02AM 47.5070 20.1250 311° West 438 504 38,000  Level FlightAware
12:03AM 47.6040 19.9590 311° West 432 497 38,000  Level FlightAware
12:05AM 47.6970 19.8010 311° West 430 495 38,000  Level FlightAware
12:05AM 47.7580 19.6950 311° West 429 494 38,000  Level FlightAware
12:06AM 47.8100 19.6060 311° West 431 496 38,000  Level FlightAware
12:07AM 47.8630 19.5120 310° West 434 499 38,000  Level FlightAware
12:07AM 47.9220 19.4100 311° West 433 498 38,000  Level FlightAware
12:08AM 47.9750 19.3180 311° West 426 490 38,000  Level FlightAware
12:09AM 48.0320 19.2170 310° West 427 491 38,000  Level FlightAware
12:09AM 48.0840 19.1260 311° West 430 495 38,000  Level FlightAware
12:10AM 48.1360 19.0340 310° West 430 495 38,000  Level FlightAware
12:11AM 48.1930 18.9330 310° West 430 495 38,000  Level FlightAware
12:12AM 48.2430 18.8440 310° West 428 493 38,000  Level FlightAware
12:12AM 48.2870 18.7640 310° West 426 490 38,000  Level FlightAware
12:13AM 48.3550 18.6440 310° West 424 488 38,000  Level FlightAware
12:14AM 48.4050 18.5530 310° West 423 487 38,000  Level FlightAware
12:14AM 48.4610 18.4520 310° West 423 487 38,000  Level FlightAware
12:15AM 48.5110 18.3620 310° West 426 490 38,000  Level FlightAware
12:16AM 48.5620 18.2690 310° West 426 490 38,000  Level FlightAware
12:16AM 48.6160 18.1690 309° West 427 491 38,000  Level FlightAware
12:17AM 48.6660 18.0780 310° West 425 489 38,000  Level FlightAware
12:18AM 48.7240 17.9700 309° West 424 488 38,000  Level FlightAware
12:19AM 48.7720 17.8830 310° West 422 486 38,000  Level FlightAware
12:19AM 48.8280 17.7790 309° West 422 486 38,000  Level FlightAware
12:20AM 48.8700 17.7020 310° West 419 482 38,000  Level FlightAware
12:21AM 48.9300 17.5930 310° West 421 484 38,000  Level FlightAware
12:21AM 48.9840 17.4930 309° West 421 484 38,000  Level FlightAware
12:22AM 49.0240 17.4080 306° West 415 478 38,000  Level FlightAware
12:23AM 49.0640 17.2810 296° West 410 472 38,000 120 Level FlightAware
12:23AM 49.0940 17.1750 293° West 410 472 38,200 420 Climbing FlightAware
12:24AM 49.1230 17.0690 293° West 411 473 38,600 420 Climbing FlightAware
12:25AM 49.1560 16.9490 293° West 420 483 38,800 300 Climbing FlightAware
12:26AM 49.1850 16.8440 293° West 422 486 39,100 420 Climbing FlightAware
12:26AM 49.2150 16.7310 292° West 427 491 39,400 420 Climbing FlightAware
12:27AM 49.2510 16.6010 293° West 430 495 39,700 300 Climbing FlightAware
12:28AM 49.2800 16.4930 292° West 435 501 39,900 180 Climbing FlightAware
12:28AM 49.3120 16.3730 292° West 437 503 40,000 60 Climbing FlightAware
12:29AM 49.3450 16.2490 292° West 444 511 40,000  Level FlightAware
12:30AM 49.3760 16.1310 292° West 447 514 40,000  Level FlightAware
12:30AM 49.4120 15.9970 292° West 448 516 40,000  Level FlightAware
12:31AM 49.4430 15.8790 292° West 447 514 40,000  Level FlightAware
12:32AM 49.4770 15.7480 292° West 446 513 40,000  Level FlightAware
12:33AM 49.5080 15.6310 292° West 445 512 40,000  Level FlightAware
12:33AM 49.5360 15.5200 291° West 445 512 40,000  Level FlightAware
12:34AM 49.5730 15.3750 292° West 442 509 40,000  Level FlightAware
12:35AM 49.6010 15.2670 292° West 445 512 40,000  Level FlightAware
12:35AM 49.6380 15.1230 292° West 446 513 40,000  Level FlightAware
12:36AM 49.6680 15.0050 291° West 447 514 40,000  Level FlightAware
12:37AM 49.6970 14.8870 291° West 446 513 40,000  Level FlightAware
12:37AM 49.7300 14.7580 292° West 444 511 40,000  Level FlightAware
12:38AM 49.7570 14.6480 291° West 447 514 40,000  Level FlightAware
12:39AM 49.7900 14.5160 291° West 450 518 40,000  Level FlightAware
12:40AM 49.8210 14.3900 291° West 453 521 40,000  Level FlightAware
12:40AM 49.8520 14.2600 290° West 453 521 40,000  Level FlightAware
12:41AM 49.8840 14.1310 291° West 452 520 40,000  Level FlightAware
12:42AM 49.9140 14.0050 290° West 451 519 40,000  Level FlightAware
12:42AM 49.9430 13.8840 290° West 449 517 40,000  Level FlightAware
12:43AM 49.9740 13.7540 290° West 448 516 40,000  Level FlightAware
12:44AM 50.0040 13.6290 291° West 446 513 40,000  Level FlightAware
12:44AM 50.0360 13.4950 290° West 446 513 40,000  Level FlightAware
12:45AM 50.0650 13.3690 290° West 449 517 40,000  Level FlightAware
12:46AM 50.0950 13.2410 290° West 452 520 40,000  Level FlightAware
12:47AM 50.1270 13.1040 290° West 453 521 40,000  Level FlightAware
12:47AM 50.1660 12.9820 297° West 462 532 40,000  Level FlightAware
12:48AM 50.2080 12.8680 300° West 461 531 40,000  Level FlightAware
12:49AM 50.2470 12.7550 298° West 460 529 40,000  Level FlightAware
12:49AM 50.2920 12.6200 298° West 460 529 40,000  Level FlightAware
12:50AM 50.3370 12.4850 298° West 462 532 40,000  Level FlightAware
12:51AM 50.3770 12.3660 298° West 464 534 40,000  Level FlightAware
12:51AM 50.4190 12.2460 299° West 466 536 40,000  Level FlightAware
12:52AM 50.4620 12.1220 299° West 467 537 40,000  Level FlightAware
12:53AM 50.5070 11.9920 299° West 468 539 40,000  Level FlightAware
12:54AM 50.5520 11.8600 298° West 464 534 40,000  Level FlightAware
12:54AM 50.5910 11.7450 298° West 464 534 40,000  Level FlightAware
12:55AM 50.6330 11.6220 298° West 465 535 40,000  Level FlightAware
12:56AM 50.6780 11.4870 298° West 464 534 40,000  Level FlightAware
12:56AM 50.7180 11.3700 298° West 461 531 40,000  Level FlightAware
12:57AM 50.7580 11.2500 298° West 455 524 40,000  Level FlightAware
12:58AM 50.8010 11.1210 298° West 452 520 40,000  Level FlightAware
12:58AM 50.8390 11.0050 297° West 453 521 40,000  Level FlightAware
12:59AM 50.8840 10.8680 298° West 453 521 40,000  Level FlightAware
01:00AM 50.9220 10.7510 297° West 457 526 40,000  Level FlightAware
01:01AM 50.9650 10.6210 298° West 457 526 40,000  Level FlightAware
01:01AM 51.0040 10.5010 297° West 458 527 40,000  Level FlightAware
01:02AM 51.0410 10.3850 297° West 457 526 40,000  Level FlightAware
01:03AM 51.0810 10.2610 297° West 457 526 40,000  Level FlightAware
01:03AM 51.1200 10.1380 297° West 455 524 40,000  Level FlightAware
01:04AM 51.1640 9.9990 297° West 451 519 40,000  Level FlightAware
01:05AM 51.1810 9.8780 283° West 445 512 40,000  Level FlightAware
01:07AM 51.2038 9.5599 277° West  Level Estimated
01:07AM 51.2270 9.5100 277° West 449 517 40,000  Level FlightAware
01:07AM 51.2450 9.3580 281° West 449 517 40,000  Level FlightAware
01:08AM 51.2590 9.2280 280° West 448 516 40,000  Level FlightAware
01:09AM 51.2730 9.1120 281° West 446 513 40,000  Level FlightAware
01:09AM 51.2900 8.9600 280° West 444 511 40,000  Level FlightAware
01:10AM 51.3040 8.8310 280° West 441 507 40,000  Level FlightAware
01:11AM 51.3180 8.7020 280° West 440 506 40,000  Level FlightAware
01:12AM 51.3340 8.5540 280° West 442 509 40,000  Level FlightAware
01:12AM 51.3470 8.4250 279° West 442 509 40,000  Level FlightAware
01:13AM 51.3620 8.2840 280° West 443 510 40,000  Level FlightAware
01:14AM 51.3750 8.1610 280° West 443 510 40,000  Level FlightAware
01:14AM 51.3910 8.0060 279° West 442 509 40,000  Level FlightAware
01:15AM 51.4040 7.8820 280° West 441 507 40,000  Level FlightAware
01:16AM 51.4180 7.7410 279° West 440 506 40,000  Level FlightAware
01:16AM 51.4290 7.6260 279° West 439 505 40,000  Level FlightAware
01:17AM 51.4430 7.4830 279° West 440 506 40,000  Level FlightAware
01:18AM 51.4580 7.3340 279° West 440 506 40,000  Level FlightAware
01:19AM 51.4690 7.2140 278° West 441 507 40,000  Level FlightAware
01:19AM 51.4830 7.0640 279° West 443 510 40,000  Level FlightAware
01:20AM 51.4950 6.9400 279° West 444 511 40,000  Level FlightAware
01:21AM 51.5070 6.8090 278° West 445 512 40,000  Level FlightAware
01:21AM 51.5210 6.6480 278° West 446 513 40,000  Level FlightAware
01:22AM 51.5330 6.5210 279° West 447 514 40,000  Level FlightAware
01:23AM 51.5440 6.3950 278° West 448 516 40,000  Level FlightAware
01:23AM 51.5570 6.2430 278° West 451 519 40,000  Level FlightAware
01:24AM 51.5680 6.1130 278° West 454 522 40,000  Level FlightAware
01:25AM 51.5790 5.9820 278° West 453 521 40,000  Level FlightAware
01:26AM 51.5920 5.8270 278° West 452 520 40,000  Level FlightAware
01:26AM 51.6040 5.6810 278° West 452 520 40,000  Level FlightAware
01:27AM 51.6140 5.5620 278° West 451 519 40,000 -1,680 Level FlightAware
01:27AM 51.6170 5.4865 278° West 488 562 38,500 -2,460 Descending FlightAware UK
01:27AM 51.6215 5.4262 277° West 488 562 38,500 3,420 Level FlightAware UK
01:28AM 51.6250 5.4200 277° West 452 520 40,000  Climbing FlightAware
01:28AM 51.6293 5.3478 277° West 490 564 38,500 -2,700 Descending FlightAware UK
01:28AM 51.6349 5.2886 279° West 492 566 38,500 3,060 Level FlightAware UK
01:28AM 51.6370 5.2620 279° West 452 520 40,000  Climbing FlightAware
01:29AM 51.6428 5.1886 279° West 490 564 38,500  Descending FlightAware UK
01:29AM 51.6470 5.1380 279° West 451 519 40,000  Climbing FlightAware
01:29AM 51.6521 5.0690 279° West 488 562 38,500 -2,760 Descending FlightAware UK
01:30AM 51.6563 5.0087 276° West 490 564 38,500 3,600 Level FlightAware UK
01:30AM 51.6580 4.9950 276° West 454 522 40,000  Climbing FlightAware
01:30AM 51.6651 4.9095 276° West 488 562 38,500  Descending FlightAware UK
01:30AM 51.6690 4.8470 276° West 458 527 40,000  Climbing FlightAware
01:31AM 51.6772 4.7481 276° West 494 568 38,500  Descending FlightAware UK
01:31AM 51.6790 4.7160 276° West 457 526 40,000  Climbing FlightAware
01:31AM 51.6863 4.6268 276° West 494 568 38,500  Descending FlightAware UK
01:32AM 51.6890 4.5770 276° West 454 522 40,000  Climbing FlightAware
01:32AM 51.6959 4.4853 276° West 492 566 38,500  Descending FlightAware UK
01:33AM 51.6990 4.4260 276° West 451 519 40,000  Climbing FlightAware
01:33AM 51.7042 4.3450 276° West 490 564 38,500 -2,340 Descending FlightAware UK
01:33AM 51.7084 4.2850 276° West 490 564 38,500 3,720 Level FlightAware UK
01:33AM 51.7100 4.2740 276° West 452 520 40,000  Climbing FlightAware
01:34AM 51.7152 4.2053 276° West 488 562 38,500  Descending FlightAware UK
01:34AM 51.7170 4.1690 276° West 453 521 40,000  Climbing FlightAware
01:34AM 51.7224 4.0846 276° West 490 564 38,500  Descending FlightAware UK
01:35AM 51.7280 4.0020 276° West 454 522 40,000  Climbing FlightAware
01:35AM 51.7326 3.9439 276° West 492 566 38,500  Descending FlightAware UK
01:35AM 51.7380 3.8540 276° West 453 521 40,000  Climbing FlightAware
01:36AM 51.7442 3.7627 276° West 490 564 38,500  Descending FlightAware UK
01:36AM 51.7440 3.7210 276° West 453 521 40,000  Climbing FlightAware
01:36AM 51.7437 3.6613 276° West 494 568 38,500 -2,760 Descending FlightAware UK
01:37AM 51.7433 3.6011 269° West 490 564 38,500 3,600 Level FlightAware UK
01:37AM 51.7440 3.5890 269° West 451 519 40,000  Climbing FlightAware
01:37AM 51.7434 3.5011 269° West 488 562 38,500  Descending FlightAware UK
01:37AM 51.7440 3.4390 269° West 453 521 40,000  Climbing FlightAware
01:38AM 51.7446 3.3599 269° West 494 568 38,500 -2,400 Descending FlightAware UK
01:38AM 51.7453 3.2995 271° West 492 566 38,500 4,500 Level FlightAware UK
01:38AM 51.7450 3.3040 271° West 451 519 40,000 -540 Climbing FlightAware
01:38AM 51.7461 3.2200 271° West 484 557 38,300 -600 Descending FlightAware UK
01:39AM 51.7470 3.1720 271° West 441 507 39,600 -1,200 Climbing FlightAware
01:39AM 51.7472 3.1031 271° West 482 555 37,600 -3,420 Descending FlightAware UK
01:39AM 51.7480 3.0243 271° West 486 559 37,300 2,760 Descending FlightAware UK
01:40AM 51.7480 3.0270 271° West 435 501 38,900 -540 Climbing FlightAware
01:40AM 51.7486 2.9477 271° West 480 552 37,100 -3,660 Descending FlightAware UK
01:40AM 51.7487 2.8901 270° West 482 555 36,600 3,300 Descending FlightAware UK
01:40AM 51.7490 2.8990 270° West 431 496 38,200 -1,020 Climbing FlightAware
01:40AM 51.7489 2.8332 270° West 482 555 36,300 -3,720 Descending FlightAware UK
01:41AM 51.7490 2.7768 270° West 480 552 36,100 2,220 Descending FlightAware UK
01:41AM 51.7490 2.7510 270° West 427 491 37,400 -1,620 Climbing FlightAware
01:41AM 51.7492 2.6816 270° West 488 562 35,300 -3,780 Descending FlightAware UK
01:42AM 51.7494 2.6243 270° West 488 562 35,100 3,660 Descending FlightAware UK
01:42AM 51.7500 2.6280 270° West 425 489 36,600 -1,020 Climbing FlightAware
01:42AM 51.7496 2.5673 270° West 488 562 34,800 -4,740 Descending FlightAware UK
01:42AM 51.7500 2.5138 271° West 476 548 34,000 -3,180 Descending FlightAware UK
01:42AM 51.7501 2.4599 270° West 470 541 32,900 780 Descending FlightAware UK
01:43AM 51.7500 2.4550 270° West 405 466 34,300 -3,000 Climbing FlightAware
01:43AM 51.7495 2.3883 270° West 462 532 31,700 -5,220 Descending FlightAware UK
01:43AM 51.7495 2.3343 270° West 456 525 31,000 1,680 Descending FlightAware UK
01:43AM 51.7500 2.3250 270° West 394 453 32,400 -2,280 Climbing FlightAware
01:44AM 51.7495 2.2643 270° West 458 527 30,100 -2,280 Descending FlightAware UK
01:44AM 51.7500 2.2110 270° West 367 422 30,900 -2,460 Climbing FlightAware
01:44AM 51.7497 2.1173 270° West 436 502 27,900 -2,400 Descending FlightAware UK
01:45AM 51.7500 2.1020 270° West 362 417 29,300 -1,800 Climbing FlightAware
01:45AM 51.7494 2.0376 270° West 430 495 27,000 -4,500 Descending FlightAware UK
01:45AM 51.7493 1.9903 270° West 424 488 26,400 1,980 Descending FlightAware UK
01:45AM 51.7490 1.9800 270° West 347 399 27,800 -1,800 Climbing FlightAware
01:46AM 51.7436 1.9305 270° West 418 481 25,700 -1,860 Descending FlightAware UK
01:46AM 51.7335 1.8629 270° West 335 386 26,400 -1,800 Climbing FlightAware ADS-B
01:46AM 51.7259 1.8140 270° West 396 456 24,300 -1,560 Descending FlightAware UK
01:47AM 51.7222 1.7905 270° West 325 374 25,600 -1,620 Climbing FlightAware ADS-B
01:47AM 51.7146 1.7445 270° West 392 451 23,500 -1,740 Descending FlightAware UK
01:47AM 51.7096 1.7150 270° West 325 374 24,700 -1,620 Climbing FlightAware ADS-B
01:47AM 51.7029 1.6748 270° West 394 453 22,700 -4,500 Descending FlightAware UK
01:48AM 51.6958 1.6325 255° West 396 456 22,100 -1,860 Descending FlightAware UK
01:48AM 51.6886 1.5899 255° West 388 447 21,600 2,820 Descending FlightAware UK
01:48AM 51.6890 1.5910 255° West 322 371 23,100 -1,800 Climbing FlightAware
01:48AM 51.6786 1.5356 255° West 384 442 20,900 -4,200 Descending FlightAware UK
01:49AM 51.6709 1.4955 253° West 382 440 20,400 2,220 Descending FlightAware UK
01:49AM 51.6690 1.4870 253° West 314 361 21,800 -1,800 Climbing FlightAware
01:49AM 51.6605 1.4422 253° West 376 433 19,700 -4,380 Descending FlightAware UK
01:49AM 51.6531 1.4026 253° West 370 426 19,200 2,700 Descending FlightAware UK
01:50AM 51.6530 1.4000 253° West 304 350 20,700 -1,800 Climbing FlightAware
01:50AM 51.6445 1.3506 253° West 364 419 18,500 -4,380 Descending FlightAware UK
01:50AM 51.6379 1.3127 254° West 360 414 18,000 2,160 Descending FlightAware UK
01:50AM 51.6360 1.3000 254° West 299 344 19,400 -1,680 Climbing FlightAware
01:51AM 51.6291 1.2608 254° West 362 417 17,300 -4,500 Descending FlightAware UK
01:51AM 51.6228 1.2213 256° West 364 419 16,800 2,340 Descending FlightAware UK
01:51AM 51.6220 1.2170 256° West 305 351 18,200 -1,800 Climbing FlightAware
01:51AM 51.6145 1.1685 256° West 362 417 16,100 -4,380 Descending FlightAware UK
01:52AM 51.6080 1.1292 255° West 362 417 15,500 2,520 Descending FlightAware UK
01:52AM 51.6070 1.1250 255° West 303 349 17,000 -1,620 Climbing FlightAware
01:52AM 51.5991 1.0777 255° West 360 414 14,900 -1,620 Descending FlightAware UK
01:52AM 51.5910 1.0320 255° West 296 341 15,800 -1,740 Climbing FlightAware
01:53AM 51.5828 0.9895 255° West 358 412 13,700 -4,320 Descending FlightAware UK
01:53AM 51.5755 0.9525 252° West 350 403 13,300 3,120 Descending FlightAware UK
01:53AM 51.5740 0.9470 252° West 284 327 14,900 -840 Climbing FlightAware
01:53AM 51.5689 0.8914 252° West 342 394 12,900 -840 Descending FlightAware UK
01:54AM 51.5679 0.8712 252° West 284 327 14,400 2,460 Climbing FlightAware ADS-B
01:54AM 51.5701 0.8287 275° West 286 329 14,200 -3,300 Descending FlightAware ADS-B
01:54AM 51.5739 0.7910 275° West 340 391 12,400 -4,140 Descending FlightAware UK
01:55AM 51.5778 0.7539 280° West 338 389 11,800 1,500 Descending FlightAware UK
01:55AM 51.5799 0.7370 280° West 282 325 13,100 420 Climbing FlightAware ADS-B
01:55AM 51.5875 0.6722 281° West 281 323 12,100 -1,860 Descending FlightAware ADS-B
01:56AM 51.5950 0.6094 281° West 282 325 11,200 -3,840 Descending FlightAware ADS-B
01:56AM 51.5997 0.5695 281° West 326 375 9,000 -1,800 Descending FlightAware UK
01:56AM 51.6022 0.5468 281° West 281 323 10,300 1,920 Climbing FlightAware ADS-B
01:57AM 51.6059 0.5141 280° West 279 321 9,900 -1,800 Descending FlightAware ADS-B
01:57AM 51.6101 0.4761 280° West 281 323 9,300 -3,840 Descending FlightAware ADS-B
01:57AM 51.6147 0.4344 280° West 304 350 7,500 -720 Descending FlightAware UK
01:57AM 51.6158 0.4253 280° West 281 323 9,000 4,260 Climbing FlightAware ADS-B
01:58AM 51.6191 0.3961 280° West 254 292 9,000  Level FlightAware ADS-B
01:58AM 51.6220 0.3693 280° West 241 277 9,000  Level FlightAware ADS-B
01:58AM 51.6254 0.3383 280° West 223 257 9,000 -2,520 Level FlightAware ADS-B
01:58AM 51.6286 0.3090 280° West 250 288 7,500  Descending FlightAware UK
01:58AM 51.6299 0.2985 280° West 217 250 9,000 3,720 Climbing FlightAware ADS-B
01:59AM 51.6328 0.2720 280° West 216 249 9,000  Level FlightAware ADS-B
01:59AM 51.6359 0.2448 280° West 221 254 9,000  Level FlightAware ADS-B
01:59AM 51.6386 0.2204 280° West 218 251 9,000  Level FlightAware ADS-B
02:00AM 51.6413 0.1950 280° West 215 247 9,000  Level FlightAware ADS-B
02:00AM 51.6439 0.1706 280° West 215 247 9,000  Level FlightAware ADS-B
02:00AM 51.6452 0.1576 279° West 217 250 9,000  Level FlightAware ADS-B
02:00AM 51.6453 0.1508 271° West 218 251 9,000  Level FlightAware ADS-B
02:00AM 51.6446 0.1425 262° West 218 251 9,000  Level FlightAware ADS-B
02:00AM 51.6424 0.1315 252° West 219 252 9,000  Level FlightAware ADS-B
02:00AM 51.6392 0.1212 243° Southwest 221 254 9,000  Level FlightAware ADS-B
02:00AM 51.6358 0.1130 236° Southwest 224 258 9,000  Level FlightAware ADS-B
02:01AM 51.6323 0.1064 230° Southwest 228 262 9,000  Level FlightAware ADS-B
02:01AM 51.6290 0.1014 223° Southwest 232 267 9,000  Level FlightAware ADS-B
02:01AM 51.6242 0.0960 215° Southwest 238 274 9,000  Level FlightAware ADS-B
02:01AM 51.6203 0.0926 208° Southwest 240 276 9,000  Level FlightAware ADS-B
02:01AM 51.6153 0.0895 201° Southwest 243 280 9,000  Level FlightAware ADS-B
02:01AM 51.6095 0.0874 192° South 250 288 9,000  Level FlightAware ADS-B
02:01AM 51.6051 0.0868 185° South 253 291 9,000  Level FlightAware ADS-B
02:01AM 51.5982 0.0874 177° South 261 300 9,000  Level FlightAware ADS-B
02:01AM 51.5946 0.0885 170° South 264 304 9,000  Level FlightAware ADS-B
02:01AM 51.5872 0.0928 160° South 270 311 9,000  Level FlightAware ADS-B
02:01AM 51.5797 0.1002 148° Southeast 273 314 9,000  Level FlightAware ADS-B
02:01AM 51.5732 0.1106 135° Southeast 277 319 9,000  Level FlightAware ADS-B
02:02AM 51.5678 0.1244 122° Southeast 284 327 9,000  Level FlightAware ADS-B
02:02AM 51.5653 0.1362 109° East 283 326 9,000 -480 Level FlightAware ADS-B
02:02AM 51.5643 0.1536 95° East 280 322 8,900 -480 Descending FlightAware ADS-B
02:02AM 51.5650 0.1659 85° East 278 320 8,900 -4,260 Level FlightAware ADS-B
02:02AM 51.5678 0.2038 85° East 248 285 7,200 -480 Descending FlightAware UK
02:02AM 51.5688 0.2172 85° East 280 322 8,700 3,540 Climbing FlightAware ADS-B
02:03AM 51.5714 0.2483 82° East 274 315 8,500 -660 Descending FlightAware ADS-B
02:03AM 51.5750 0.2754 78° East 270 311 8,400 -600 Descending FlightAware ADS-B
02:03AM 51.5792 0.2875 61° Northeast 266 306 8,300 -480 Descending FlightAware ADS-B
02:03AM 51.5839 0.2963 49° Northeast 262 302 8,300 -480 Level FlightAware ADS-B
02:03AM 51.5907 0.3047 37° Northeast 256 295 8,200 -600 Descending FlightAware ADS-B
02:03AM 51.6041 0.3134 22° Northeast 249 287 8,100 -360 Descending FlightAware ADS-B
02:03AM 51.6099 0.3146 North 243 280 8,100  Level FlightAware ADS-B
02:04AM 51.6163 0.3143 358° North 239 275 8,100 -300 Level FlightAware ADS-B
02:04AM 51.6315 0.3059 341° North 236 272 8,000 -240 Descending FlightAware ADS-B
02:04AM 51.6409 0.2934 321° Northwest 221 254 8,000  Level FlightAware ADS-B
02:04AM 51.6449 0.2854 309° West 222 255 8,000  Level FlightAware ADS-B
02:04AM 51.6473 0.2785 299° West 222 255 8,000  Level FlightAware ADS-B
02:04AM 51.6491 0.2719 294° West 221 254 8,000  Level FlightAware ADS-B
02:04AM 51.6500 0.2673 287° West 222 255 8,000  Level FlightAware ADS-B
02:04AM 51.6506 0.2621 281° West 219 252 8,000  Level FlightAware ADS-B
02:04AM 51.6511 0.2563 278° West 221 254 8,000  Level FlightAware ADS-B
02:05AM 51.6511 0.2494 270° West 221 254 8,000  Level FlightAware ADS-B
02:05AM 51.6506 0.2403 265° West 223 257 8,000  Level FlightAware ADS-B
02:05AM 51.6498 0.2267 265° West 222 255 8,000  Level FlightAware ADS-B
02:05AM 51.6500 0.2173 272° West 221 254 8,000  Level FlightAware ADS-B
02:05AM 51.6501 0.2087 271° West 220 253 8,000  Level FlightAware ADS-B
02:05AM 51.6498 0.1963 268° West 218 251 8,000  Level FlightAware ADS-B
02:05AM 51.6480 0.1643 265° West 217 250 8,000  Level FlightAware ADS-B
02:06AM 51.6476 0.1406 268° West 215 247 8,000  Level FlightAware ADS-B
02:06AM 51.6480 0.1142 271° West 218 251 8,000 -420 Level FlightAware ADS-B
02:06AM 51.6483 0.0939 271° West 217 250 7,800 -660 Descending FlightAware ADS-B
02:06AM 51.6486 0.0678 271° West 216 249 7,700 -420 Descending FlightAware ADS-B
02:07AM 51.6488 0.0433 271° West 219 252 7,600 -420 Descending FlightAware ADS-B
02:07AM 51.6492 0.0185 271° West 214 246 7,500 -420 Descending FlightAware ADS-B
02:07AM 51.6496 -0.0024 272° West 213 245 7,400 -660 Descending FlightAware ADS-B
02:07AM 51.6498 -0.0268 271° West 214 246 7,200 -600 Descending FlightAware ADS-B
02:08AM 51.6503 -0.0524 272° West 212 244 7,100 -420 Descending FlightAware ADS-B
02:08AM 51.6507 -0.0790 271° West 215 247 7,000 -180 Descending FlightAware ADS-B
02:08AM 51.6508 -0.1058 270° West 217 250 7,000  Level FlightAware ADS-B
02:08AM 51.6510 -0.1309 271° West 217 250 7,000  Level FlightAware ADS-B
02:09AM 51.6510 -0.1555 270° West 217 250 7,000  Level FlightAware ADS-B
02:09AM 51.6510 -0.1610 270° West 218 251 7,000  Level FlightAware ADS-B
02:09AM 51.6507 -0.1665 265° West 220 253 7,000  Level FlightAware ADS-B
02:09AM 51.6499 -0.1726 258° West 221 254 7,000  Level FlightAware ADS-B
02:09AM 51.6476 -0.1825 250° West 225 259 7,000  Level FlightAware ADS-B
02:09AM 51.6451 -0.1888 238° Southwest 230 265 7,000 -900 Level FlightAware ADS-B
02:09AM 51.6427 -0.1932 229° Southwest 232 267 6,900 -780 Descending FlightAware ADS-B
02:09AM 51.6386 -0.1990 221° Southwest 237 273 6,900 -720 Level FlightAware ADS-B
02:09AM 51.6351 -0.2025 212° Southwest 241 277 6,800 -900 Descending FlightAware ADS-B
02:09AM 51.6320 -0.2048 205° Southwest 243 280 6,800  Level FlightAware ADS-B
02:09AM 51.6284 -0.2068 199° South 246 283 6,800 -720 Level FlightAware ADS-B
02:09AM 51.6228 -0.2084 190° South 249 287 6,700 -1,380 Descending FlightAware ADS-B
02:10AM 51.6174 -0.2085 181° South 253 291 6,600 -600 Descending FlightAware ADS-B
02:10AM 51.6107 -0.2068 171° South 257 296 6,600 -540 Level FlightAware ADS-B
02:10AM 51.6040 -0.2026 159° South 259 298 6,500 -720 Descending FlightAware ADS-B
02:10AM 51.6006 -0.1996 151° Southeast 261 300 6,500 -780 Level FlightAware ADS-B
02:10AM 51.5960 -0.1939 143° Southeast 262 302 6,400 -600 Descending FlightAware ADS-B
02:10AM 51.5920 -0.1871 133° Southeast 264 304 6,400 -600 Level FlightAware ADS-B
02:10AM 51.5888 -0.1799 125° Southeast 265 305 6,300 -480 Descending FlightAware ADS-B
02:10AM 51.5840 -0.1661 119° Southeast 265 305 6,300 -540 Level FlightAware ADS-B
02:10AM 51.5758 -0.1388 116° Southeast 266 306 6,100 -780 Descending FlightAware ADS-B
02:11AM 51.5673 -0.1099 115° Southeast 266 306 5,900 -780 Descending FlightAware ADS-B
02:11AM 51.5587 -0.0809 116° Southeast 263 303 5,700 -780 Descending FlightAware ADS-B
02:11AM 51.5509 -0.0549 116° Southeast 251 289 5,500 -720 Descending FlightAware ADS-B
02:11AM 51.5493 -0.0498 117° Southeast 241 277 5,500 -720 Level FlightAware ADS-B
02:11AM 51.5458 -0.0413 124° Southeast 236 272 5,400 -900 Descending FlightAware ADS-B
02:12AM 51.5347 -0.0273 142° Southeast 215 247 5,200 -840 Descending FlightAware ADS-B
02:12AM 51.5138 -0.0196 167° South 201 231 4,900 -1,020 Descending FlightAware ADS-B
02:12AM 51.4914 -0.0174 177° South 190 219 4,400 -1,320 Descending FlightAware ADS-B
02:12AM 51.4884 -0.0192 200° South 185 213 4,300 -960 Descending FlightAware ADS-B
02:13AM 51.4819 -0.0273 218° Southwest 183 211 4,200 -720 Descending FlightAware ADS-B
02:13AM 51.4789 -0.0337 233° Southwest 171 197 4,100 -540 Descending FlightAware ADS-B
02:13AM 51.4718 -0.0514 237° Southwest 171 197 4,000 -300 Descending FlightAware ADS-B
02:13AM 51.4692 -0.0584 239° Southwest 171 197 4,000  Level FlightAware ADS-B
02:13AM 51.4664 -0.0698 248° West 169 194 4,000  Level FlightAware ADS-B
02:13AM 51.4655 -0.0816 263° West 167 192 4,000  Level FlightAware ADS-B
02:14AM 51.4655 -0.1003 270° West 157 181 4,000  Level FlightAware ADS-B
02:14AM 51.4656 -0.1166 271° West 148 170 4,000 -240 Level FlightAware ADS-B
02:14AM 51.4655 -0.1338 269° West 148 170 3,900 -780 Descending FlightAware ADS-B
02:14AM 51.4655 -0.1502 270° West 147 169 3,600 -900 Descending FlightAware ADS-B
02:15AM 51.4655 -0.1708 270° West 145 167 3,400 -840 Descending FlightAware ADS-B
02:15AM 51.4654 -0.1900 270° West 146 168 3,100 -960 Descending FlightAware ADS-B
02:15AM 51.4654 -0.2065 270° West 145 167 2,900 -3,540 Descending FlightAware ADS-B
02:16AM 51.4654 -0.2269 270° West 164 189 1,100 -900 Descending FlightAware UK
02:16AM 51.4654 -0.2348 270° West 145 167 2,500 2,520 Climbing FlightAware ADS-B
02:16AM 51.4654 -0.2560 270° West 144 166 2,300 -780 Descending FlightAware ADS-B
02:17AM 51.4650 -0.3000 269° West 145 167 1,700 -840 Descending FlightAware
02:17AM 51.4650 -0.3330 270° West 140 161 1,300 -720 Descending FlightAware
02:18AM 51.4650 -0.3730 270° West 136 157 900 -600 Descending FlightAware
02:18AM 51.4650 -0.3810 270° West 134 154 800 -600 Descending FlightAware
02:19AM 51.4650 -0.4240 270° West 134 154 200 -480 Descending FlightAware
02:20AM 51.4650 -0.4470 270° West 134 154 200  Level FlightAware
02:22AM 51.4775 -0.4614 324° Northwest  Level Estimated
02:23AM 51.4775 -0.4614 90° East  Level Estimated
02:24AM 51.4775 -0.4614 90° East  Level Estimated
02:25AM 51.4775 -0.4614 90° East  Level Estimated
02:26AM 51.4775 -0.4614 90° East  Level Estimated
02:27AM 51.4775 -0.4614 90° East  Level Estimated
02:28AM 51.4775 -0.4614 90° East  Level Estimated
02:29AM 51.4775 -0.4614 90° East  Level Estimated
02:30AM 51.4775 -0.4614 90° East  Level Estimated